createdAt,value
2023-02-11T00:01:27.390Z,58.50
2023-02-11T00:03:56.104Z,68.20
2023-02-11T00:06:25.529Z,51.50
2023-02-11T00:08:54.216Z,55.80
2023-02-11T00:11:24.288Z,63.40
2023-02-11T00:13:52.380Z,61.80
2023-02-11T00:16:21.326Z,61.20
2023-02-11T00:18:50.421Z,58.40
2023-02-11T00:21:21.318Z,58.70
2023-02-11T00:23:49.505Z,58.20
2023-02-11T00:26:30.932Z,57.90
2023-02-11T00:29:00.906Z,59.00
2023-02-11T00:31:29.227Z,58.60
2023-02-11T00:33:57.283Z,63.40
2023-02-11T00:36:28.403Z,60.50
2023-02-11T00:38:58.105Z,63.00
2023-02-11T00:41:26.319Z,58.80
2023-02-11T00:43:54.530Z,53.80
2023-02-11T00:46:22.993Z,65.50
2023-02-11T00:48:52.004Z,63.10
2023-02-11T00:51:22.692Z,65.90
2023-02-11T00:53:52.123Z,57.20
2023-02-11T00:56:20.540Z,57.20
2023-02-11T00:58:48.517Z,63.40
2023-02-11T01:01:18.523Z,63.40
2023-02-11T01:03:46.694Z,77.80
2023-02-11T01:06:15.066Z,55.90
2023-02-11T01:08:43.634Z,67.00
2023-02-11T01:11:21.842Z,66.00
2023-02-11T01:13:50.315Z,67.30
2023-02-11T01:16:20.351Z,61.00
2023-02-11T01:18:48.796Z,64.40
2023-02-11T01:21:19.280Z,59.20
2023-02-11T01:23:47.636Z,66.50
2023-02-11T01:26:15.605Z,64.00
2023-02-11T01:28:43.859Z,58.70
2023-02-11T01:31:11.983Z,65.30
2023-02-11T01:33:40.316Z,59.20
2023-02-11T01:36:09.406Z,59.80
2023-02-11T01:38:37.765Z,58.80
2023-02-11T01:41:08.874Z,57.20
2023-02-11T01:43:40.764Z,58.80
2023-02-11T01:46:30.151Z,54.90
2023-02-11T01:49:04.220Z,59.10
2023-02-11T01:51:51.372Z,57.40
2023-02-11T01:54:42.693Z,62.40
2023-02-11T01:57:25.197Z,57.10
2023-02-11T02:00:14.905Z,52.90
2023-02-11T02:03:22.710Z,56.40
2023-02-11T02:06:13.090Z,54.60
2023-02-11T02:08:47.464Z,54.40
2023-02-11T02:11:15.489Z,57.80
2023-02-11T02:13:43.426Z,60.50
2023-02-11T02:16:14.496Z,60.10
2023-02-11T02:19:08.767Z,54.20
2023-02-11T02:22:14.456Z,60.60
2023-02-11T02:25:07.120Z,54.40
2023-02-11T02:27:48.821Z,55.90
2023-02-11T02:30:33.203Z,60.80
2023-02-11T02:33:22.415Z,63.20
2023-02-11T02:36:14.910Z,57.20
2023-02-11T02:38:56.341Z,54.20
2023-02-11T02:41:29.934Z,57.20
2023-02-11T02:43:58.910Z,53.50
2023-02-11T02:46:30.294Z,53.10
2023-02-11T02:48:59.373Z,51.10
2023-02-11T02:51:51.572Z,60.70
2023-02-11T02:54:28.086Z,55.30
2023-02-11T02:57:17.566Z,48.10
2023-02-11T03:00:02.758Z,47.70
2023-02-11T03:02:36.622Z,45.50
2023-02-11T03:05:16.317Z,41.30
2023-02-11T03:08:18.791Z,48.00
2023-02-11T03:10:53.109Z,45.10
2023-02-11T03:13:26.754Z,44.50
2023-02-11T03:15:58.767Z,46.90
2023-02-11T03:18:30.619Z,45.40
2023-02-11T03:21:01.287Z,46.20
2023-02-11T03:23:35.263Z,52.00
2023-02-11T03:26:16.566Z,49.10
2023-02-11T03:28:48.898Z,49.40
2023-02-11T03:31:34.487Z,52.10
2023-02-11T03:34:17.520Z,51.80
2023-02-11T03:36:53.988Z,47.90
2023-02-11T03:39:29.877Z,53.90
2023-02-11T03:42:00.837Z,54.70
2023-02-11T03:44:34.977Z,55.00
2023-02-11T03:47:07.545Z,53.00
2023-02-11T03:49:38.393Z,42.30
2023-02-11T03:52:07.928Z,57.90
2023-02-11T03:54:36.491Z,45.80
2023-02-11T03:57:04.794Z,54.50
2023-02-11T03:59:32.979Z,46.20
2023-02-11T04:02:01.021Z,51.10
2023-02-11T04:04:28.942Z,44.10
2023-02-11T04:06:57.800Z,46.00
2023-02-11T04:09:25.788Z,41.00
2023-02-11T04:11:53.739Z,41.60
2023-02-11T04:14:21.743Z,44.10
2023-02-11T04:16:49.706Z,38.40
2023-02-11T04:19:17.645Z,42.30
2023-02-11T04:21:45.634Z,37.30
2023-02-11T04:24:13.618Z,35.00
2023-02-11T04:26:41.547Z,40.30
2023-02-11T04:29:09.617Z,41.90
2023-02-11T04:31:37.601Z,41.50
2023-02-11T04:34:05.709Z,35.30
2023-02-11T04:36:33.732Z,34.40
2023-02-11T04:39:01.830Z,34.40
2023-02-11T04:41:29.858Z,40.30
2023-02-11T04:43:57.948Z,37.30
2023-02-11T04:46:26.335Z,37.80
2023-02-11T04:48:54.400Z,39.00
2023-02-11T04:51:22.827Z,38.50
2023-02-11T04:53:51.501Z,38.70
2023-02-11T04:56:19.965Z,40.00
2023-02-11T04:58:47.925Z,46.00
2023-02-11T05:01:17.053Z,37.80
2023-02-11T05:03:45.059Z,41.00
2023-02-11T05:06:13.091Z,33.40
2023-02-11T05:08:41.285Z,38.50
2023-02-11T05:11:16.336Z,40.70
2023-02-11T05:13:44.331Z,41.10
2023-02-11T05:16:15.285Z,30.60
2023-02-11T05:18:44.975Z,33.00
2023-02-11T05:21:16.149Z,33.40
2023-02-11T05:23:45.036Z,34.90
2023-02-11T05:26:14.028Z,38.10
2023-02-11T05:28:42.902Z,35.70
2023-02-11T05:31:11.904Z,34.70
2023-02-11T05:33:40.615Z,33.70
2023-02-11T05:36:11.818Z,38.50
2023-02-11T05:38:40.660Z,38.20
2023-02-11T05:41:09.316Z,37.30
2023-02-11T05:43:37.553Z,38.90
2023-02-11T05:46:06.154Z,34.90
2023-02-11T05:48:35.143Z,31.00
2023-02-11T05:51:03.278Z,33.30
2023-02-11T05:53:31.247Z,33.50
2023-02-11T05:55:59.244Z,31.10
2023-02-11T05:58:27.474Z,39.20
2023-02-11T06:00:56.170Z,33.40
2023-02-11T06:03:24.160Z,36.80
2023-02-11T06:05:52.432Z,37.00
2023-02-11T06:08:20.556Z,37.50
2023-02-11T06:10:48.560Z,31.60
2023-02-11T06:13:18.885Z,33.60
2023-02-11T06:15:56.396Z,35.90
2023-02-11T06:18:25.278Z,33.70
2023-02-11T06:20:53.464Z,35.10
2023-02-11T06:23:22.236Z,33.40
2023-02-11T06:25:51.947Z,35.50
2023-02-11T06:28:20.445Z,34.30
2023-02-11T06:30:48.677Z,33.10
2023-02-11T06:33:16.766Z,34.80
2023-02-11T06:35:44.838Z,38.90
2023-02-11T06:38:12.765Z,31.30
2023-02-11T06:40:41.000Z,34.70
2023-02-11T06:43:08.928Z,31.30
2023-02-11T06:45:36.890Z,26.30
2023-02-11T06:48:05.022Z,26.00
2023-02-11T06:50:33.106Z,33.70
2023-02-11T06:53:01.348Z,34.40
2023-02-11T06:55:29.394Z,30.40
2023-02-11T06:57:57.490Z,29.30
2023-02-11T07:00:26.647Z,26.40
2023-02-11T07:02:55.074Z,37.80
2023-02-11T07:05:23.250Z,34.80
2023-02-11T07:07:51.246Z,32.00
2023-02-11T07:10:20.433Z,32.30
2023-02-11T07:12:48.461Z,29.40
2023-02-11T07:15:16.719Z,32.60
2023-02-11T07:17:44.790Z,29.00
2023-02-11T07:20:14.851Z,26.90
2023-02-11T07:22:42.923Z,32.70
2023-02-11T07:25:10.996Z,28.10
2023-02-11T07:27:39.058Z,31.30
2023-02-11T07:30:07.588Z,32.90
2023-02-11T07:32:35.624Z,30.70
2023-02-11T07:35:07.469Z,27.50
2023-02-11T07:37:35.869Z,30.80
2023-02-11T07:40:04.241Z,32.80
2023-02-11T07:42:32.248Z,36.50
2023-02-11T07:45:00.246Z,31.70
2023-02-11T07:47:28.520Z,37.30
2023-02-11T07:49:56.821Z,32.10
2023-02-11T07:52:24.839Z,32.10
2023-02-11T07:54:52.782Z,36.70
2023-02-11T07:57:20.740Z,35.20
2023-02-11T07:59:48.752Z,34.50
2023-02-11T08:02:16.804Z,34.50
2023-02-11T08:04:47.186Z,39.50
2023-02-11T08:07:17.230Z,31.80
2023-02-11T08:09:45.464Z,44.70
2023-02-11T08:12:13.616Z,37.80
2023-02-11T08:14:41.645Z,34.20
2023-02-11T08:17:09.580Z,34.60
2023-02-11T08:19:39.641Z,37.80
2023-02-11T08:22:07.648Z,30.40
2023-02-11T08:24:35.620Z,34.30
2023-02-11T08:27:03.663Z,38.70
2023-02-11T08:29:31.765Z,30.70
2023-02-11T08:31:59.860Z,33.50
2023-02-11T08:34:27.899Z,40.00
2023-02-11T08:36:55.942Z,32.50
2023-02-11T08:39:24.099Z,34.20
2023-02-11T08:41:54.865Z,41.20
2023-02-11T08:44:24.232Z,42.00
2023-02-11T08:46:53.292Z,38.80
2023-02-11T08:49:22.409Z,44.90
2023-02-11T08:51:50.955Z,38.80
2023-02-11T08:54:19.101Z,39.00
2023-02-11T08:56:51.864Z,43.40
2023-02-11T08:59:19.865Z,40.50
2023-02-11T09:01:48.380Z,35.80
2023-02-11T09:04:16.487Z,33.40
2023-02-11T09:06:44.540Z,35.30
2023-02-11T09:09:14.623Z,36.50
2023-02-11T09:11:44.537Z,36.40
2023-02-11T09:14:21.990Z,38.10
2023-02-11T09:16:51.838Z,37.70
2023-02-11T09:19:21.095Z,38.10
2023-02-11T09:21:49.206Z,37.80
2023-02-11T09:24:17.366Z,40.30
2023-02-11T09:26:45.519Z,36.40
2023-02-11T09:29:13.979Z,34.70
2023-02-11T09:31:42.168Z,37.20
2023-02-11T09:34:11.268Z,39.70
2023-02-11T09:36:41.077Z,37.30
2023-02-11T09:39:19.852Z,40.80
2023-02-11T09:42:09.966Z,40.00
2023-02-11T09:44:39.640Z,42.50
2023-02-11T09:47:19.617Z,41.40
2023-02-11T09:50:16.176Z,39.90
2023-02-11T09:52:52.002Z,37.20
2023-02-11T09:55:27.772Z,39.30
2023-02-11T09:57:57.271Z,41.80
2023-02-11T10:00:37.055Z,44.80
2023-02-11T10:03:19.159Z,38.30
2023-02-11T10:06:28.632Z,43.80
2023-02-11T10:08:59.509Z,41.10
2023-02-11T10:12:00.938Z,40.70
2023-02-11T10:14:55.601Z,43.90
2023-02-11T10:17:49.669Z,40.40
2023-02-11T10:20:33.810Z,41.20
2023-02-11T10:23:13.760Z,41.00
2023-02-11T10:25:47.520Z,44.70
2023-02-11T10:28:17.085Z,39.60
2023-02-11T10:31:00.935Z,43.10
2023-02-11T10:33:47.294Z,37.80
2023-02-11T10:36:17.966Z,38.80
2023-02-11T10:38:45.981Z,44.50
2023-02-11T10:41:20.677Z,41.10
2023-02-11T10:52:25.466Z,35.40
2023-02-11T11:03:53.161Z,44.70
2023-02-11T11:06:33.176Z,34.50
2023-02-11T11:09:01.340Z,37.70
2023-02-11T11:11:29.383Z,37.90
2023-02-11T11:13:59.999Z,31.10
2023-02-11T11:16:35.496Z,39.30
2023-02-11T11:19:09.187Z,36.30
2023-02-11T11:21:49.556Z,35.90
2023-02-11T11:24:29.444Z,44.10
2023-02-11T11:27:01.586Z,36.80
2023-02-11T11:29:33.264Z,41.00
2023-02-11T11:32:23.002Z,38.50
2023-02-11T11:35:01.461Z,35.70
2023-02-11T11:37:32.372Z,37.70
2023-02-11T11:40:00.293Z,39.50
2023-02-11T11:42:31.180Z,37.60
2023-02-11T11:45:04.679Z,39.40
2023-02-11T11:47:52.635Z,50.20
2023-02-11T11:50:23.568Z,42.10
2023-02-11T11:53:10.294Z,44.60
2023-02-11T11:56:30.783Z,41.10
2023-02-11T11:59:06.577Z,37.70
2023-02-11T12:01:56.305Z,46.40
2023-02-11T12:04:36.720Z,40.50
2023-02-11T12:07:57.388Z,38.10
2023-02-11T12:10:41.382Z,45.50
2023-02-11T12:13:35.210Z,39.40
2023-02-11T12:16:19.596Z,38.20
2023-02-11T12:19:17.118Z,39.00
2023-02-11T12:22:17.159Z,41.30
2023-02-11T12:25:18.771Z,36.30
2023-02-11T12:28:12.945Z,40.00
2023-02-11T12:31:02.659Z,38.20
2023-02-11T12:34:06.456Z,38.50
2023-02-11T12:36:54.403Z,39.70
2023-02-11T12:39:42.799Z,38.80
2023-02-11T12:43:08.244Z,43.20
2023-02-11T12:45:44.964Z,43.60
2023-02-11T12:48:39.065Z,39.40
2023-02-11T12:51:15.524Z,38.60
2023-02-11T12:54:09.273Z,44.50
2023-02-11T12:56:43.423Z,43.80
2023-02-11T12:59:42.202Z,46.00
2023-02-11T13:02:23.516Z,42.40
2023-02-11T13:04:55.743Z,45.20
2023-02-11T13:07:31.362Z,44.30
2023-02-11T13:10:24.613Z,44.60
2023-02-11T13:13:14.327Z,45.10
2023-02-11T13:15:47.072Z,40.00
2023-02-11T13:18:30.021Z,45.60
2023-02-11T13:21:00.644Z,44.40
2023-02-11T13:23:39.646Z,46.00
2023-02-11T13:26:29.977Z,43.60
2023-02-11T13:29:19.154Z,42.50
2023-02-11T13:32:06.385Z,41.60
2023-02-11T13:34:43.642Z,41.60
2023-02-11T13:37:26.876Z,41.80
2023-02-11T13:39:59.440Z,41.30
2023-02-11T13:42:30.236Z,44.40
2023-02-11T13:44:58.872Z,49.40
2023-02-11T13:47:28.332Z,45.40
2023-02-11T13:49:58.515Z,40.80
2023-02-11T13:52:35.050Z,42.60
2023-02-11T13:55:12.288Z,43.80
2023-02-11T13:57:41.923Z,48.40
2023-02-11T14:00:34.898Z,48.20
2023-02-11T14:03:31.404Z,48.20
2023-02-11T14:06:27.006Z,44.20
2023-02-11T14:09:10.270Z,40.00
2023-02-11T14:11:41.771Z,48.70
2023-02-11T14:14:24.153Z,48.40
2023-02-11T14:16:58.750Z,47.30
2023-02-11T14:19:46.345Z,50.00
2023-02-11T14:22:27.783Z,58.00
2023-02-11T14:24:57.400Z,44.60
2023-02-11T14:27:34.697Z,51.70
2023-02-11T14:30:29.761Z,51.20
2023-02-11T14:33:08.567Z,50.30
2023-02-11T14:36:14.029Z,48.50
2023-02-11T14:38:42.714Z,45.90
2023-02-11T14:41:23.056Z,61.70
2023-02-11T14:43:59.894Z,56.50
2023-02-11T14:46:32.963Z,56.00
2023-02-11T14:49:03.734Z,60.30
2023-02-11T15:18:22.894Z,58.40
2023-02-11T15:20:52.452Z,54.70
2023-02-11T15:23:27.326Z,51.10
2023-02-11T15:25:58.220Z,58.10
2023-02-11T15:28:29.348Z,57.80
2023-02-11T15:31:27.655Z,55.80
2023-02-11T15:33:55.959Z,58.40
2023-02-11T15:36:29.170Z,54.50
2023-02-11T15:39:31.628Z,48.90
2023-02-11T15:42:29.273Z,53.60
2023-02-11T15:45:15.693Z,51.40
2023-02-11T15:47:57.331Z,52.40
2023-02-11T15:50:35.186Z,50.30
2023-02-11T15:53:20.981Z,53.00
2023-02-11T15:55:51.537Z,54.40
2023-02-11T15:58:20.672Z,45.10
2023-02-11T16:00:54.814Z,53.50
2023-02-11T16:03:25.957Z,52.50
2023-02-11T16:05:55.603Z,50.50
2023-02-11T16:08:29.378Z,45.80
2023-02-11T16:11:03.693Z,53.10
2023-02-11T16:13:38.175Z,51.70
2023-02-11T16:16:19.710Z,49.10
2023-02-11T19:49:03.383Z,46.80
2023-02-11T19:51:33.624Z,45.00
2023-02-11T19:54:01.912Z,50.10
2023-02-11T19:56:30.079Z,47.20
2023-02-11T19:58:58.402Z,48.20
2023-02-11T20:01:30.031Z,49.40
2023-02-11T20:03:58.175Z,54.90
2023-02-11T20:06:34.497Z,47.40
2023-02-11T20:09:06.608Z,48.60
2023-02-11T20:11:35.296Z,55.90
2023-02-11T20:14:04.093Z,53.10
2023-02-11T20:16:47.050Z,54.20
2023-02-11T20:19:22.044Z,57.00
2023-02-11T20:21:53.137Z,46.20
2023-02-11T20:24:22.775Z,50.40
2023-02-11T20:26:55.539Z,49.70
2023-02-11T20:29:24.921Z,48.50
2023-02-11T20:31:54.300Z,54.30
2023-02-11T20:34:22.965Z,47.40
2023-02-11T20:36:54.220Z,48.90
2023-02-11T20:39:24.561Z,46.10
2023-02-11T20:41:54.089Z,48.90
2023-02-11T20:44:22.560Z,45.20
2023-02-11T20:46:54.352Z,40.70
2023-02-11T20:49:24.851Z,47.10
2023-02-11T20:51:54.035Z,43.90
2023-02-11T20:54:26.913Z,41.90
2023-02-11T20:56:56.972Z,45.60
2023-02-11T20:59:26.610Z,44.60
2023-02-11T21:01:56.424Z,46.30
2023-02-11T21:04:33.320Z,46.90
2023-02-11T21:07:05.203Z,45.70
2023-02-11T21:09:33.844Z,50.40
2023-02-11T21:12:02.886Z,50.90
2023-02-11T21:14:31.235Z,41.80
2023-02-11T21:16:59.433Z,43.50
2023-02-11T21:19:27.556Z,50.30
2023-02-11T21:21:57.350Z,48.10
2023-02-11T21:24:25.510Z,47.50
2023-02-11T21:26:53.774Z,45.50
2023-02-11T21:29:22.432Z,51.90
2023-02-11T21:31:51.560Z,51.90
2023-02-11T21:34:20.848Z,53.50
2023-02-11T21:36:51.409Z,49.70
2023-02-11T21:39:20.531Z,51.80
2023-02-11T21:41:48.888Z,49.40
2023-02-11T21:44:17.964Z,45.20
2023-02-11T21:46:46.302Z,50.30
2023-02-11T21:49:14.543Z,47.20
2023-02-11T21:51:43.118Z,39.20
2023-02-11T21:54:11.339Z,40.60
2023-02-11T21:56:42.457Z,41.60
2023-02-11T21:59:14.067Z,43.60
2023-02-11T22:01:42.108Z,41.60
2023-02-11T22:04:10.117Z,45.00
2023-02-11T22:06:38.872Z,49.10
2023-02-11T22:09:11.150Z,44.20
2023-02-11T22:11:39.190Z,39.70
2023-02-11T22:14:07.654Z,39.90
2023-02-11T22:16:35.946Z,35.50
2023-02-11T22:19:07.631Z,45.40
2023-02-11T22:21:35.717Z,41.60
2023-02-11T22:24:03.983Z,43.00
2023-02-11T22:26:33.455Z,43.50
2023-02-11T22:29:01.576Z,38.40
2023-02-11T22:31:33.705Z,43.00
2023-02-11T22:34:03.626Z,36.90
2023-02-11T22:36:40.470Z,31.80
2023-02-11T22:39:15.536Z,35.10
2023-02-11T22:41:45.818Z,36.40
2023-02-11T22:44:16.593Z,32.10
2023-02-11T22:46:44.626Z,34.50
2023-02-11T22:49:14.710Z,34.30
2023-02-11T22:51:43.285Z,36.30
2023-02-11T22:54:16.930Z,34.90
2023-02-11T22:56:45.851Z,35.70
2023-02-11T22:59:36.761Z,34.10
2023-02-11T23:02:04.906Z,37.20
2023-02-11T23:04:33.011Z,33.60
2023-02-11T23:07:00.961Z,33.70
2023-02-11T23:09:29.455Z,31.40
2023-02-11T23:11:57.993Z,31.00
2023-02-11T23:14:26.099Z,27.90
2023-02-11T23:16:54.201Z,30.50
2023-02-11T23:19:24.905Z,30.30
2023-02-11T23:21:53.448Z,28.30
2023-02-11T23:24:21.439Z,27.90
2023-02-11T23:26:49.446Z,25.90
2023-02-11T23:29:17.493Z,32.70
2023-02-11T23:31:46.575Z,27.20
2023-02-11T23:34:18.496Z,28.10
2023-02-11T23:36:46.452Z,24.80
2023-02-11T23:39:16.096Z,27.10
2023-02-11T23:41:45.063Z,26.50
2023-02-11T23:44:13.216Z,31.30
2023-02-11T23:46:41.395Z,26.70
2023-02-11T23:49:09.968Z,26.80
2023-02-11T23:51:37.993Z,26.00
2023-02-11T23:54:06.065Z,27.20
2023-02-11T23:56:37.015Z,25.60
2023-02-11T23:59:05.346Z,31.00
